Oceana Nas /Apollo Soucek Field/ Station
KNTU : now visible

Airfield :











YOU CAN JOIN US ON...

 
LOGIN :

Register | Disclaimer

   EN    FR    IT 

 









Legend :    VFR   Marginal VFR   IFR   Intensive IFR   Very Intensive IFR
Visi :
Ceiling :
>= 8 km
>= 3000ft
5 to 8 km
1000 to 3000 ft
1500m to 5 km
500 to 1000 ft
800 to 1500m
200 to 500 ft
< 800m
< 200 ft
Symbols :   Thunderstorms  Fog  Heavy snow  Heavy precipitations  Wind > 20 kt






- Airport Elevation : 23 ft


KNTU - Oceana Nas /Apollo Soucek Field/ Station

CURRENT METAR :
  • 240356Z 03005KT 10SM SCT070 BKN300 07/06 A3027 RMK AO2 SLP253 T00720061

EXPIRED METARs :
  • 240256Z 03005KT 10SM FEW070 OVC180 04/03 A3027 RMK AO2 SLP253 T00390033 58014
  • 240156Z 01004KT 10SM FEW060 OVC180 04/03 A3029 RMK AO2 SLP261 T00440033

TAF TAF KNTU
Valid from the 23 at 23:00 until the 24 at 23:00 UTC


2323/2423 02006KT 9999 BKN070 OVC200 QNH3026INS
FM240400 05006KT 9999 BKN040 BKN070 OVC200 QNH3020INS
FM241400 09010G18KT 9999 BKN050 BKN200 QNH3005INS T05/2323Z T14/2419Z FN20051



MET'MAP, your aeronautical weather chart ! - Copyright ORBIFLY December 2007 - Disclaimer

ORBIFLY MET'MAP TEAM :

Programming & Development : Alexandra Zaïnal
Concept & original design : Baudouin d'Aumeries
Assistance for programming : Marc-Olivier Méhu
Technical & hardware support : Manuel Goepfert

Contact : metmap@orbifly.com




SOURCES & CREDITS :

   NOAA       Earth
Advisory